sensor_id;sensor_type;location;lat;lon;timestamp;P1;durP1;ratioP1;P2;durP2;ratioP2
17595;SDS011;8916;47.086;15.920;2022-08-21T00:00:38;11.75;;;7.97;;
17595;SDS011;8916;47.086;15.920;2022-08-21T00:03:11;10.07;;;7.53;;
17595;SDS011;8916;47.086;15.920;2022-08-21T00:05:42;13.80;;;8.93;;
17595;SDS011;8916;47.086;15.920;2022-08-21T00:08:18;11.27;;;6.90;;
17595;SDS011;8916;47.086;15.920;2022-08-21T00:10:49;12.10;;;6.32;;
17595;SDS011;8916;47.086;15.920;2022-08-21T00:13:19;9.20;;;5.72;;
17595;SDS011;8916;47.086;15.920;2022-08-21T00:15:48;7.10;;;5.65;;
17595;SDS011;8916;47.086;15.920;2022-08-21T00:18:19;5.40;;;4.68;;
17595;SDS011;8916;47.086;15.920;2022-08-21T00:20:48;9.32;;;5.38;;
17595;SDS011;8916;47.086;15.920;2022-08-21T00:23:19;10.60;;;4.55;;
17595;SDS011;8916;47.086;15.920;2022-08-21T00:25:48;6.28;;;4.63;;
17595;SDS011;8916;47.086;15.920;2022-08-21T00:28:18;7.50;;;4.60;;
17595;SDS011;8916;47.086;15.920;2022-08-21T00:30:47;8.02;;;4.70;;
17595;SDS011;8916;47.086;15.920;2022-08-21T00:33:16;8.10;;;4.30;;
17595;SDS011;8916;47.086;15.920;2022-08-21T00:35:45;6.93;;;4.10;;
17595;SDS011;8916;47.086;15.920;2022-08-21T00:38:15;10.15;;;3.95;;
17595;SDS011;8916;47.086;15.920;2022-08-21T00:40:47;5.20;;;3.60;;
17595;SDS011;8916;47.086;15.920;2022-08-21T00:43:20;9.63;;;2.85;;
17595;SDS011;8916;47.086;15.920;2022-08-21T00:45:52;3.58;;;2.35;;
17595;SDS011;8916;47.086;15.920;2022-08-21T00:48:23;5.70;;;2.78;;
17595;SDS011;8916;47.086;15.920;2022-08-21T00:50:55;6.85;;;2.80;;
17595;SDS011;8916;47.086;15.920;2022-08-21T00:53:28;5.85;;;2.75;;
17595;SDS011;8916;47.086;15.920;2022-08-21T00:56:01;5.05;;;1.70;;
17595;SDS011;8916;47.086;15.920;2022-08-21T00:58:33;5.50;;;2.80;;
17595;SDS011;8916;47.086;15.920;2022-08-21T01:01:04;5.57;;;2.70;;
17595;SDS011;8916;47.086;15.920;2022-08-21T01:03:35;9.07;;;3.00;;
17595;SDS011;8916;47.086;15.920;2022-08-21T01:06:11;9.25;;;2.67;;
17595;SDS011;8916;47.086;15.920;2022-08-21T01:08:41;7.40;;;3.80;;
17595;SDS011;8916;47.086;15.920;2022-08-21T01:11:14;4.07;;;2.53;;
17595;SDS011;8916;47.086;15.920;2022-08-21T01:13:44;7.38;;;2.00;;
17595;SDS011;8916;47.086;15.920;2022-08-21T01:16:15;6.75;;;2.03;;
17595;SDS011;8916;47.086;15.920;2022-08-21T01:18:48;5.97;;;1.88;;
17595;SDS011;8916;47.086;15.920;2022-08-21T01:21:21;4.97;;;1.70;;
17595;SDS011;8916;47.086;15.920;2022-08-21T01:23:55;4.82;;;2.42;;
17595;SDS011;8916;47.086;15.920;2022-08-21T01:26:27;3.85;;;2.10;;
17595;SDS011;8916;47.086;15.920;2022-08-21T01:29:03;2.78;;;1.42;;
17595;SDS011;8916;47.086;15.920;2022-08-21T01:31:39;1.92;;;1.70;;
17595;SDS011;8916;47.086;15.920;2022-08-21T01:34:09;5.03;;;1.60;;
17595;SDS011;8916;47.086;15.920;2022-08-21T01:36:40;3.72;;;1.40;;
17595;SDS011;8916;47.086;15.920;2022-08-21T01:39:10;4.28;;;1.40;;
17595;SDS011;8916;47.086;15.920;2022-08-21T01:41:40;5.68;;;1.70;;
17595;SDS011;8916;47.086;15.920;2022-08-21T01:44:09;1.65;;;1.45;;
17595;SDS011;8916;47.086;15.920;2022-08-21T01:46:39;2.47;;;1.50;;
17595;SDS011;8916;47.086;15.920;2022-08-21T01:49:08;2.95;;;2.10;;
17595;SDS011;8916;47.086;15.920;2022-08-21T01:51:37;4.70;;;1.95;;
17595;SDS011;8916;47.086;15.920;2022-08-21T01:54:08;3.58;;;1.70;;
17595;SDS011;8916;47.086;15.920;2022-08-21T01:56:37;7.57;;;2.20;;
17595;SDS011;8916;47.086;15.920;2022-08-21T01:59:11;5.28;;;2.38;;
17595;SDS011;8916;47.086;15.920;2022-08-21T02:01:40;7.45;;;2.20;;
17595;SDS011;8916;47.086;15.920;2022-08-21T02:04:10;4.38;;;2.20;;
17595;SDS011;8916;47.086;15.920;2022-08-21T02:06:39;4.97;;;2.22;;
17595;SDS011;8916;47.086;15.920;2022-08-21T02:09:11;5.55;;;2.65;;
17595;SDS011;8916;47.086;15.920;2022-08-21T02:11:42;5.10;;;2.80;;
17595;SDS011;8916;47.086;15.920;2022-08-21T02:14:12;7.20;;;3.42;;
17595;SDS011;8916;47.086;15.920;2022-08-21T02:16:59;9.18;;;4.35;;
17595;SDS011;8916;47.086;15.920;2022-08-21T02:19:37;10.93;;;3.90;;
17595;SDS011;8916;47.086;15.920;2022-08-21T02:22:07;7.05;;;3.83;;
17595;SDS011;8916;47.086;15.920;2022-08-21T02:24:39;8.52;;;4.68;;
17595;SDS011;8916;47.086;15.920;2022-08-21T02:27:21;8.73;;;4.15;;
17595;SDS011;8916;47.086;15.920;2022-08-21T02:29:53;11.68;;;4.43;;
17595;SDS011;8916;47.086;15.920;2022-08-21T02:32:24;8.15;;;3.80;;
17595;SDS011;8916;47.086;15.920;2022-08-21T02:34:54;6.22;;;4.00;;
17595;SDS011;8916;47.086;15.920;2022-08-21T02:37:24;8.00;;;3.90;;
17595;SDS011;8916;47.086;15.920;2022-08-21T02:39:54;6.60;;;3.65;;
17595;SDS011;8916;47.086;15.920;2022-08-21T02:42:24;7.97;;;3.38;;
17595;SDS011;8916;47.086;15.920;2022-08-21T02:44:53;9.00;;;3.30;;
17595;SDS011;8916;47.086;15.920;2022-08-21T02:47:22;7.50;;;3.55;;
17595;SDS011;8916;47.086;15.920;2022-08-21T02:49:51;3.65;;;2.38;;
17595;SDS011;8916;47.086;15.920;2022-08-21T02:52:21;3.20;;;2.30;;
17595;SDS011;8916;47.086;15.920;2022-08-21T02:54:51;5.88;;;2.00;;
17595;SDS011;8916;47.086;15.920;2022-08-21T02:57:22;3.55;;;1.80;;
17595;SDS011;8916;47.086;15.920;2022-08-21T02:59:51;1.85;;;1.67;;
17595;SDS011;8916;47.086;15.920;2022-08-21T03:02:20;3.10;;;1.55;;
17595;SDS011;8916;47.086;15.920;2022-08-21T03:04:52;6.07;;;2.00;;
17595;SDS011;8916;47.086;15.920;2022-08-21T03:07:22;3.53;;;1.90;;
17595;SDS011;8916;47.086;15.920;2022-08-21T03:09:52;4.10;;;2.20;;
17595;SDS011;8916;47.086;15.920;2022-08-21T03:12:23;4.72;;;1.80;;
17595;SDS011;8916;47.086;15.920;2022-08-21T03:14:56;3.38;;;2.30;;
17595;SDS011;8916;47.086;15.920;2022-08-21T03:17:25;4.78;;;2.70;;
17595;SDS011;8916;47.086;15.920;2022-08-21T03:19:56;8.70;;;3.10;;
17595;SDS011;8916;47.086;15.920;2022-08-21T03:22:26;5.65;;;2.78;;
17595;SDS011;8916;47.086;15.920;2022-08-21T03:24:57;8.43;;;2.80;;
17595;SDS011;8916;47.086;15.920;2022-08-21T03:27:34;4.53;;;2.80;;
17595;SDS011;8916;47.086;15.920;2022-08-21T03:30:06;5.93;;;2.90;;
17595;SDS011;8916;47.086;15.920;2022-08-21T03:32:37;6.03;;;2.45;;
17595;SDS011;8916;47.086;15.920;2022-08-21T03:35:07;8.38;;;2.90;;
17595;SDS011;8916;47.086;15.920;2022-08-21T03:37:37;7.35;;;2.53;;
17595;SDS011;8916;47.086;15.920;2022-08-21T03:40:08;4.70;;;2.50;;
17595;SDS011;8916;47.086;15.920;2022-08-21T03:42:40;5.15;;;2.58;;
17595;SDS011;8916;47.086;15.920;2022-08-21T03:45:09;6.00;;;2.63;;
17595;SDS011;8916;47.086;15.920;2022-08-21T03:47:49;9.90;;;2.50;;
17595;SDS011;8916;47.086;15.920;2022-08-21T03:50:21;4.18;;;2.65;;
17595;SDS011;8916;47.086;15.920;2022-08-21T03:52:50;7.60;;;3.38;;
17595;SDS011;8916;47.086;15.920;2022-08-21T03:55:20;7.78;;;3.03;;
17595;SDS011;8916;47.086;15.920;2022-08-21T03:57:51;7.05;;;3.38;;
17595;SDS011;8916;47.086;15.920;2022-08-21T04:00:20;9.52;;;3.47;;
17595;SDS011;8916;47.086;15.920;2022-08-21T04:02:51;8.00;;;3.83;;
17595;SDS011;8916;47.086;15.920;2022-08-21T04:05:20;4.45;;;3.40;;
17595;SDS011;8916;47.086;15.920;2022-08-21T04:07:56;5.78;;;4.50;;
17595;SDS011;8916;47.086;15.920;2022-08-21T04:10:28;7.07;;;3.90;;
17595;SDS011;8916;47.086;15.920;2022-08-21T04:13:01;7.00;;;3.88;;
17595;SDS011;8916;47.086;15.920;2022-08-21T04:15:31;9.00;;;3.88;;
17595;SDS011;8916;47.086;15.920;2022-08-21T04:18:00;12.80;;;4.38;;
17595;SDS011;8916;47.086;15.920;2022-08-21T04:20:31;11.23;;;3.95;;
17595;SDS011;8916;47.086;15.920;2022-08-21T04:23:00;8.60;;;4.00;;
17595;SDS011;8916;47.086;15.920;2022-08-21T04:25:30;5.25;;;2.95;;
17595;SDS011;8916;47.086;15.920;2022-08-21T04:28:01;6.95;;;3.20;;
17595;SDS011;8916;47.086;15.920;2022-08-21T04:30:32;8.55;;;2.58;;
17595;SDS011;8916;47.086;15.920;2022-08-21T04:33:01;6.95;;;2.58;;
17595;SDS011;8916;47.086;15.920;2022-08-21T04:35:31;5.40;;;2.75;;
17595;SDS011;8916;47.086;15.920;2022-08-21T04:38:00;5.88;;;2.95;;
17595;SDS011;8916;47.086;15.920;2022-08-21T04:40:29;9.63;;;2.90;;
17595;SDS011;8916;47.086;15.920;2022-08-21T04:43:02;7.90;;;3.30;;
17595;SDS011;8916;47.086;15.920;2022-08-21T04:45:36;6.63;;;2.90;;
17595;SDS011;8916;47.086;15.920;2022-08-21T04:48:08;6.70;;;2.72;;
17595;SDS011;8916;47.086;15.920;2022-08-21T04:50:41;6.63;;;2.50;;
17595;SDS011;8916;47.086;15.920;2022-08-21T04:53:16;6.75;;;3.42;;
17595;SDS011;8916;47.086;15.920;2022-08-21T04:55:50;6.60;;;3.78;;
17595;SDS011;8916;47.086;15.920;2022-08-21T04:58:23;6.28;;;4.00;;
17595;SDS011;8916;47.086;15.920;2022-08-21T05:00:56;9.43;;;4.60;;
17595;SDS011;8916;47.086;15.920;2022-08-21T05:03:28;7.03;;;4.72;;
17595;SDS011;8916;47.086;15.920;2022-08-21T05:05:59;4.88;;;4.35;;
17595;SDS011;8916;47.086;15.920;2022-08-21T05:08:28;4.22;;;3.38;;
17595;SDS011;8916;47.086;15.920;2022-08-21T05:10:57;6.15;;;3.45;;
17595;SDS011;8916;47.086;15.920;2022-08-21T05:13:28;8.13;;;3.20;;
17595;SDS011;8916;47.086;15.920;2022-08-21T05:15:59;3.97;;;2.72;;
17595;SDS011;8916;47.086;15.920;2022-08-21T05:18:28;2.83;;;2.38;;
17595;SDS011;8916;47.086;15.920;2022-08-21T05:20:57;2.90;;;2.28;;
17595;SDS011;8916;47.086;15.920;2022-08-21T05:23:27;4.22;;;2.70;;
17595;SDS011;8916;47.086;15.920;2022-08-21T05:25:56;6.30;;;3.28;;
17595;SDS011;8916;47.086;15.920;2022-08-21T05:28:25;5.93;;;4.53;;
17595;SDS011;8916;47.086;15.920;2022-08-21T05:30:57;9.95;;;5.03;;
17595;SDS011;8916;47.086;15.920;2022-08-21T05:33:26;6.38;;;4.47;;
17595;SDS011;8916;47.086;15.920;2022-08-21T05:35:56;6.20;;;3.78;;
17595;SDS011;8916;47.086;15.920;2022-08-21T05:38:25;4.70;;;3.85;;
17595;SDS011;8916;47.086;15.920;2022-08-21T05:40:55;6.80;;;3.92;;
17595;SDS011;8916;47.086;15.920;2022-08-21T05:43:25;7.45;;;3.78;;
17595;SDS011;8916;47.086;15.920;2022-08-21T05:45:54;5.93;;;3.92;;
17595;SDS011;8916;47.086;15.920;2022-08-21T05:48:25;4.43;;;3.10;;
17595;SDS011;8916;47.086;15.920;2022-08-21T05:50:54;6.20;;;3.50;;
17595;SDS011;8916;47.086;15.920;2022-08-21T05:53:24;3.75;;;3.15;;
17595;SDS011;8916;47.086;15.920;2022-08-21T05:55:53;7.40;;;2.80;;
17595;SDS011;8916;47.086;15.920;2022-08-21T05:58:22;12.73;;;3.40;;
17595;SDS011;8916;47.086;15.920;2022-08-21T06:00:52;8.93;;;3.33;;
17595;SDS011;8916;47.086;15.920;2022-08-21T06:03:23;7.95;;;3.28;;
17595;SDS011;8916;47.086;15.920;2022-08-21T06:05:54;8.02;;;3.30;;
17595;SDS011;8916;47.086;15.920;2022-08-21T06:08:24;3.25;;;2.95;;
17595;SDS011;8916;47.086;15.920;2022-08-21T06:10:55;4.22;;;2.45;;
17595;SDS011;8916;47.086;15.920;2022-08-21T06:13:27;7.95;;;3.25;;
17595;SDS011;8916;47.086;15.920;2022-08-21T06:16:01;4.72;;;2.53;;
17595;SDS011;8916;47.086;15.920;2022-08-21T06:18:38;2.47;;;2.28;;
17595;SDS011;8916;47.086;15.920;2022-08-21T06:21:08;4.93;;;2.80;;
17595;SDS011;8916;47.086;15.920;2022-08-21T06:23:38;5.65;;;2.60;;
17595;SDS011;8916;47.086;15.920;2022-08-21T06:26:09;5.28;;;2.65;;
17595;SDS011;8916;47.086;15.920;2022-08-21T06:28:40;5.07;;;2.45;;
17595;SDS011;8916;47.086;15.920;2022-08-21T06:31:11;6.32;;;2.60;;
17595;SDS011;8916;47.086;15.920;2022-08-21T06:33:44;3.58;;;2.33;;
17595;SDS011;8916;47.086;15.920;2022-08-21T06:40:46;5.82;;;2.95;;
17595;SDS011;8916;47.086;15.920;2022-08-21T06:43:16;3.70;;;2.55;;
17595;SDS011;8916;47.086;15.920;2022-08-21T06:45:46;3.78;;;2.53;;
17595;SDS011;8916;47.086;15.920;2022-08-21T06:48:15;3.35;;;2.40;;
17595;SDS011;8916;47.086;15.920;2022-08-21T06:50:47;4.25;;;2.50;;
17595;SDS011;8916;47.086;15.920;2022-08-21T06:53:17;3.88;;;2.90;;
17595;SDS011;8916;47.086;15.920;2022-08-21T06:55:48;6.30;;;2.72;;
17595;SDS011;8916;47.086;15.920;2022-08-21T06:58:21;3.95;;;2.30;;
17595;SDS011;8916;47.086;15.920;2022-08-21T07:00:50;3.40;;;2.40;;
17595;SDS011;8916;47.086;15.920;2022-08-21T07:03:28;4.95;;;2.40;;
17595;SDS011;8916;47.086;15.920;2022-08-21T07:06:00;2.90;;;2.10;;
17595;SDS011;8916;47.086;15.920;2022-08-21T07:08:30;5.25;;;2.30;;
17595;SDS011;8916;47.086;15.920;2022-08-21T07:11:02;2.63;;;2.08;;
17595;SDS011;8916;47.086;15.920;2022-08-21T07:13:35;2.25;;;2.00;;
17595;SDS011;8916;47.086;15.920;2022-08-21T07:16:05;2.53;;;1.88;;
17595;SDS011;8916;47.086;15.920;2022-08-21T07:18:38;2.30;;;1.50;;
17595;SDS011;8916;47.086;15.920;2022-08-21T07:21:09;2.72;;;1.70;;
17595;SDS011;8916;47.086;15.920;2022-08-21T07:33:43;1.38;;;1.25;;
17595;SDS011;8916;47.086;15.920;2022-08-21T07:36:14;2.28;;;1.40;;
17595;SDS011;8916;47.086;15.920;2022-08-21T07:38:44;1.98;;;1.50;;
17595;SDS011;8916;47.086;15.920;2022-08-21T07:41:15;3.67;;;1.00;;
17595;SDS011;8916;47.086;15.920;2022-08-21T07:43:46;1.20;;;1.10;;
17595;SDS011;8916;47.086;15.920;2022-08-21T07:46:19;2.35;;;1.52;;
17595;SDS011;8916;47.086;15.920;2022-08-21T07:48:49;0.95;;;0.85;;
17595;SDS011;8916;47.086;15.920;2022-08-21T07:51:22;1.20;;;0.98;;
17595;SDS011;8916;47.086;15.920;2022-08-21T07:57:00;1.15;;;1.05;;
17595;SDS011;8916;47.086;15.920;2022-08-21T07:59:30;2.90;;;1.00;;
17595;SDS011;8916;47.086;15.920;2022-08-21T08:01:59;5.28;;;1.10;;
17595;SDS011;8916;47.086;15.920;2022-08-21T08:04:30;1.23;;;1.13;;
17595;SDS011;8916;47.086;15.920;2022-08-21T08:09:56;1.00;;;0.90;;
17595;SDS011;8916;47.086;15.920;2022-08-21T08:12:26;1.77;;;1.35;;
17595;SDS011;8916;47.086;15.920;2022-08-21T08:14:56;1.08;;;0.98;;
17595;SDS011;8916;47.086;15.920;2022-08-21T08:17:26;1.30;;;1.20;;
17595;SDS011;8916;47.086;15.920;2022-08-21T08:19:56;1.40;;;1.27;;
17595;SDS011;8916;47.086;15.920;2022-08-21T08:25:26;1.45;;;1.20;;
17595;SDS011;8916;47.086;15.920;2022-08-21T08:28:04;1.38;;;1.27;;
17595;SDS011;8916;47.086;15.920;2022-08-21T08:30:44;1.55;;;1.20;;
17595;SDS011;8916;47.086;15.920;2022-08-21T08:33:14;1.08;;;0.98;;
17595;SDS011;8916;47.086;15.920;2022-08-21T08:35:47;1.42;;;1.30;;
17595;SDS011;8916;47.086;15.920;2022-08-21T08:38:22;2.28;;;1.30;;
17595;SDS011;8916;47.086;15.920;2022-08-21T08:41:32;1.38;;;1.20;;
17595;SDS011;8916;47.086;15.920;2022-08-21T08:44:09;3.90;;;1.50;;
17595;SDS011;8916;47.086;15.920;2022-08-21T08:46:43;1.27;;;1.17;;
17595;SDS011;8916;47.086;15.920;2022-08-21T08:49:47;1.58;;;1.10;;
17595;SDS011;8916;47.086;15.920;2022-08-21T08:52:27;1.75;;;1.45;;
17595;SDS011;8916;47.086;15.920;2022-08-21T08:55:02;2.53;;;1.38;;
17595;SDS011;8916;47.086;15.920;2022-08-21T08:57:45;1.35;;;1.02;;
17595;SDS011;8916;47.086;15.920;2022-08-21T09:00:19;1.27;;;1.17;;
17595;SDS011;8916;47.086;15.920;2022-08-21T09:02:51;3.45;;;1.42;;
17595;SDS011;8916;47.086;15.920;2022-08-21T09:05:27;1.65;;;1.20;;
17595;SDS011;8916;47.086;15.920;2022-08-21T09:08:12;2.15;;;1.15;;
17595;SDS011;8916;47.086;15.920;2022-08-21T09:11:00;1.35;;;1.20;;
17595;SDS011;8916;47.086;15.920;2022-08-21T09:13:34;1.23;;;1.10;;
17595;SDS011;8916;47.086;15.920;2022-08-21T09:16:17;1.30;;;1.20;;
17595;SDS011;8916;47.086;15.920;2022-08-21T09:19:01;1.40;;;1.08;;
17595;SDS011;8916;47.086;15.920;2022-08-21T09:25:12;0.47;;;0.40;;
17595;SDS011;8916;47.086;15.920;2022-08-21T09:27:57;0.22;;;0.22;;
17595;SDS011;8916;47.086;15.920;2022-08-21T09:30:27;3.27;;;0.40;;
17595;SDS011;8916;47.086;15.920;2022-08-21T09:32:59;0.20;;;0.20;;
17595;SDS011;8916;47.086;15.920;2022-08-21T09:35:28;0.45;;;0.22;;
17595;SDS011;8916;47.086;15.920;2022-08-21T09:38:02;3.30;;;0.30;;
17595;SDS011;8916;47.086;15.920;2022-08-21T09:40:38;0.43;;;0.40;;
17595;SDS011;8916;47.086;15.920;2022-08-21T09:43:16;0.20;;;0.20;;
17595;SDS011;8916;47.086;15.920;2022-08-21T09:45:48;0.85;;;0.40;;
17595;SDS011;8916;47.086;15.920;2022-08-21T09:48:44;0.63;;;0.30;;
17595;SDS011;8916;47.086;15.920;2022-08-21T09:51:16;0.30;;;0.30;;
17595;SDS011;8916;47.086;15.920;2022-08-21T09:53:48;0.40;;;0.40;;
17595;SDS011;8916;47.086;15.920;2022-08-21T09:56:28;0.73;;;0.40;;
17595;SDS011;8916;47.086;15.920;2022-08-21T09:59:26;0.60;;;0.40;;
17595;SDS011;8916;47.086;15.920;2022-08-21T10:02:14;0.50;;;0.30;;
17595;SDS011;8916;47.086;15.920;2022-08-21T10:05:04;1.05;;;0.40;;
17595;SDS011;8916;47.086;15.920;2022-08-21T10:07:45;1.55;;;0.50;;
17595;SDS011;8916;47.086;15.920;2022-08-21T10:10:15;0.32;;;0.30;;
17595;SDS011;8916;47.086;15.920;2022-08-21T10:12:51;0.30;;;0.30;;
17595;SDS011;8916;47.086;15.920;2022-08-21T10:15:32;0.60;;;0.52;;
17595;SDS011;8916;47.086;15.920;2022-08-21T10:18:10;0.40;;;0.40;;
17595;SDS011;8916;47.086;15.920;2022-08-21T10:24:36;0.50;;;0.50;;
17595;SDS011;8916;47.086;15.920;2022-08-21T10:33:31;0.50;;;0.50;;
17595;SDS011;8916;47.086;15.920;2022-08-21T10:36:12;0.80;;;0.77;;
17595;SDS011;8916;47.086;15.920;2022-08-21T10:38:58;0.55;;;0.52;;
17595;SDS011;8916;47.086;15.920;2022-08-21T10:42:02;1.85;;;0.50;;
17595;SDS011;8916;47.086;15.920;2022-08-21T10:44:58;1.35;;;0.80;;
17595;SDS011;8916;47.086;15.920;2022-08-21T10:47:52;0.82;;;0.70;;
17595;SDS011;8916;47.086;15.920;2022-08-21T10:50:29;0.43;;;0.38;;
17595;SDS011;8916;47.086;15.920;2022-08-21T10:53:05;1.00;;;0.50;;
17595;SDS011;8916;47.086;15.920;2022-08-21T10:56:05;0.47;;;0.30;;
17595;SDS011;8916;47.086;15.920;2022-08-21T10:58:46;1.83;;;0.90;;
17595;SDS011;8916;47.086;15.920;2022-08-21T11:01:28;2.45;;;0.52;;
17595;SDS011;8916;47.086;15.920;2022-08-21T11:04:18;0.47;;;0.30;;
17595;SDS011;8916;47.086;15.920;2022-08-21T11:09:48;0.68;;;0.57;;
17595;SDS011;8916;47.086;15.920;2022-08-21T11:12:20;1.45;;;0.40;;
17595;SDS011;8916;47.086;15.920;2022-08-21T11:15:03;2.72;;;0.50;;
17595;SDS011;8916;47.086;15.920;2022-08-21T11:18:00;0.68;;;0.60;;
17595;SDS011;8916;47.086;15.920;2022-08-21T11:20:46;2.10;;;0.95;;
17595;SDS011;8916;47.086;15.920;2022-08-21T11:23:29;0.30;;;0.30;;
17595;SDS011;8916;47.086;15.920;2022-08-21T11:26:09;0.40;;;0.40;;
17595;SDS011;8916;47.086;15.920;2022-08-21T11:28:45;2.45;;;0.50;;
17595;SDS011;8916;47.086;15.920;2022-08-21T11:31:26;0.50;;;0.50;;
17595;SDS011;8916;47.086;15.920;2022-08-21T11:34:12;0.25;;;0.25;;
17595;SDS011;8916;47.086;15.920;2022-08-21T11:37:01;0.82;;;0.43;;
17595;SDS011;8916;47.086;15.920;2022-08-21T11:39:41;0.20;;;0.20;;
17595;SDS011;8916;47.086;15.920;2022-08-21T11:42:24;0.30;;;0.30;;
17595;SDS011;8916;47.086;15.920;2022-08-21T11:45:12;0.20;;;0.20;;
17595;SDS011;8916;47.086;15.920;2022-08-21T11:47:56;0.30;;;0.30;;
17595;SDS011;8916;47.086;15.920;2022-08-21T11:50:49;0.30;;;0.20;;
17595;SDS011;8916;47.086;15.920;2022-08-21T11:53:27;0.45;;;0.30;;
17595;SDS011;8916;47.086;15.920;2022-08-21T11:56:22;0.20;;;0.20;;
17595;SDS011;8916;47.086;15.920;2022-08-21T11:58:59;0.20;;;0.20;;
17595;SDS011;8916;47.086;15.920;2022-08-21T12:01:37;0.65;;;0.40;;
17595;SDS011;8916;47.086;15.920;2022-08-21T12:04:16;1.33;;;0.80;;
17595;SDS011;8916;47.086;15.920;2022-08-21T12:06:55;1.35;;;1.13;;
17595;SDS011;8916;47.086;15.920;2022-08-21T12:09:31;0.38;;;0.38;;
17595;SDS011;8916;47.086;15.920;2022-08-21T12:14:42;0.10;;;0.10;;
17595;SDS011;8916;47.086;15.920;2022-08-21T12:17:17;0.20;;;0.20;;
17595;SDS011;8916;47.086;15.920;2022-08-21T12:19:58;0.43;;;0.20;;
17595;SDS011;8916;47.086;15.920;2022-08-21T12:22:53;0.47;;;0.40;;
17595;SDS011;8916;47.086;15.920;2022-08-21T12:25:38;0.95;;;0.20;;
17595;SDS011;8916;47.086;15.920;2022-08-21T12:28:11;0.47;;;0.47;;
17595;SDS011;8916;47.086;15.920;2022-08-21T12:36:29;0.80;;;0.30;;
17595;SDS011;8916;47.086;15.920;2022-08-21T12:39:11;0.30;;;0.17;;
17595;SDS011;8916;47.086;15.920;2022-08-21T12:41:49;0.43;;;0.30;;
17595;SDS011;8916;47.086;15.920;2022-08-21T12:44:29;0.10;;;0.10;;
17595;SDS011;8916;47.086;15.920;2022-08-21T12:47:13;0.20;;;0.20;;
17595;SDS011;8916;47.086;15.920;2022-08-21T12:49:52;0.28;;;0.25;;
17595;SDS011;8916;47.086;15.920;2022-08-21T12:55:13;0.15;;;0.15;;
17595;SDS011;8916;47.086;15.920;2022-08-21T12:57:56;0.35;;;0.15;;
17595;SDS011;8916;47.086;15.920;2022-08-21T13:00:27;0.10;;;0.10;;
17595;SDS011;8916;47.086;15.920;2022-08-21T13:05:58;1.75;;;0.20;;
17595;SDS011;8916;47.086;15.920;2022-08-21T13:08:27;0.55;;;0.20;;
17595;SDS011;8916;47.086;15.920;2022-08-21T13:10:59;0.10;;;0.10;;
17595;SDS011;8916;47.086;15.920;2022-08-21T13:13:49;0.20;;;0.20;;
17595;SDS011;8916;47.086;15.920;2022-08-21T13:16:22;0.43;;;0.30;;
17595;SDS011;8916;47.086;15.920;2022-08-21T13:18:58;0.32;;;0.22;;
17595;SDS011;8916;47.086;15.920;2022-08-21T13:21:30;0.30;;;0.30;;
17595;SDS011;8916;47.086;15.920;2022-08-21T13:24:10;0.20;;;0.20;;
17595;SDS011;8916;47.086;15.920;2022-08-21T13:27:04;1.05;;;0.20;;
17595;SDS011;8916;47.086;15.920;2022-08-21T13:30:01;0.15;;;0.15;;
17595;SDS011;8916;47.086;15.920;2022-08-21T13:32:37;1.23;;;0.60;;
17595;SDS011;8916;47.086;15.920;2022-08-21T13:35:14;0.25;;;0.20;;
17595;SDS011;8916;47.086;15.920;2022-08-21T13:37:47;0.20;;;0.20;;
17595;SDS011;8916;47.086;15.920;2022-08-21T13:40:21;0.32;;;0.32;;
17595;SDS011;8916;47.086;15.920;2022-08-21T13:42:55;0.45;;;0.20;;
17595;SDS011;8916;47.086;15.920;2022-08-21T13:45:30;0.20;;;0.20;;
17595;SDS011;8916;47.086;15.920;2022-08-21T13:48:01;0.25;;;0.20;;
17595;SDS011;8916;47.086;15.920;2022-08-21T13:50:33;0.40;;;0.30;;
17595;SDS011;8916;47.086;15.920;2022-08-21T13:53:20;0.22;;;0.22;;
17595;SDS011;8916;47.086;15.920;2022-08-21T13:55:53;0.20;;;0.20;;
17595;SDS011;8916;47.086;15.920;2022-08-21T13:58:27;0.15;;;0.15;;
17595;SDS011;8916;47.086;15.920;2022-08-21T14:01:00;0.80;;;0.20;;
17595;SDS011;8916;47.086;15.920;2022-08-21T14:03:34;0.35;;;0.35;;
17595;SDS011;8916;47.086;15.920;2022-08-21T14:06:10;0.20;;;0.20;;
17595;SDS011;8916;47.086;15.920;2022-08-21T14:08:46;0.43;;;0.43;;
17595;SDS011;8916;47.086;15.920;2022-08-21T14:11:20;0.82;;;0.30;;
17595;SDS011;8916;47.086;15.920;2022-08-21T14:13:55;0.30;;;0.30;;
17595;SDS011;8916;47.086;15.920;2022-08-21T14:16:29;0.20;;;0.20;;
17595;SDS011;8916;47.086;15.920;2022-08-21T14:19:17;0.30;;;0.30;;
17595;SDS011;8916;47.086;15.920;2022-08-21T14:24:25;0.20;;;0.20;;
17595;SDS011;8916;47.086;15.920;2022-08-21T14:26:57;1.38;;;0.30;;
17595;SDS011;8916;47.086;15.920;2022-08-21T14:29:33;0.35;;;0.35;;
17595;SDS011;8916;47.086;15.920;2022-08-21T14:32:10;0.40;;;0.30;;
17595;SDS011;8916;47.086;15.920;2022-08-21T14:34:51;0.40;;;0.32;;
17595;SDS011;8916;47.086;15.920;2022-08-21T14:37:25;0.73;;;0.40;;
17595;SDS011;8916;47.086;15.920;2022-08-21T14:39:55;0.20;;;0.20;;
17595;SDS011;8916;47.086;15.920;2022-08-21T14:42:24;0.20;;;0.20;;
17595;SDS011;8916;47.086;15.920;2022-08-21T14:44:55;0.75;;;0.47;;
17595;SDS011;8916;47.086;15.920;2022-08-21T14:47:38;0.70;;;0.38;;
17595;SDS011;8916;47.086;15.920;2022-08-21T14:50:08;0.40;;;0.40;;
17595;SDS011;8916;47.086;15.920;2022-08-21T14:52:38;1.63;;;0.70;;
17595;SDS011;8916;47.086;15.920;2022-08-21T14:55:08;0.45;;;0.45;;
17595;SDS011;8916;47.086;15.920;2022-08-21T14:57:41;1.90;;;0.70;;
17595;SDS011;8916;47.086;15.920;2022-08-21T15:00:14;3.83;;;0.95;;
17595;SDS011;8916;47.086;15.920;2022-08-21T15:02:48;0.52;;;0.47;;
17595;SDS011;8916;47.086;15.920;2022-08-21T15:05:17;0.80;;;0.70;;
17595;SDS011;8916;47.086;15.920;2022-08-21T15:07:59;1.70;;;1.00;;
17595;SDS011;8916;47.086;15.920;2022-08-21T15:10:29;0.77;;;0.77;;
17595;SDS011;8916;47.086;15.920;2022-08-21T15:13:01;1.15;;;0.95;;
17595;SDS011;8916;47.086;15.920;2022-08-21T15:15:33;1.17;;;0.90;;
17595;SDS011;8916;47.086;15.920;2022-08-21T15:18:09;1.80;;;1.40;;
17595;SDS011;8916;47.086;15.920;2022-08-21T15:20:39;5.22;;;1.30;;
17595;SDS011;8916;47.086;15.920;2022-08-21T15:23:09;3.08;;;1.20;;
17595;SDS011;8916;47.086;15.920;2022-08-21T15:25:45;3.60;;;1.60;;
17595;SDS011;8916;47.086;15.920;2022-08-21T15:28:16;1.80;;;1.58;;
17595;SDS011;8916;47.086;15.920;2022-08-21T15:30:48;2.40;;;1.70;;
17595;SDS011;8916;47.086;15.920;2022-08-21T15:33:20;3.53;;;2.53;;
17595;SDS011;8916;47.086;15.920;2022-08-21T15:35:50;2.22;;;1.70;;
17595;SDS011;8916;47.086;15.920;2022-08-21T15:38:19;2.28;;;1.80;;
17595;SDS011;8916;47.086;15.920;2022-08-21T15:40:57;3.40;;;1.95;;
17595;SDS011;8916;47.086;15.920;2022-08-21T15:43:28;4.25;;;1.45;;
17595;SDS011;8916;47.086;15.920;2022-08-21T15:46:01;1.83;;;1.60;;
17595;SDS011;8916;47.086;15.920;2022-08-21T15:48:33;4.47;;;1.98;;
17595;SDS011;8916;47.086;15.920;2022-08-21T15:51:03;1.77;;;1.50;;
17595;SDS011;8916;47.086;15.920;2022-08-21T15:53:33;2.50;;;2.08;;
17595;SDS011;8916;47.086;15.920;2022-08-21T15:56:07;2.08;;;1.88;;
17595;SDS011;8916;47.086;15.920;2022-08-21T15:58:48;3.38;;;1.80;;
17595;SDS011;8916;47.086;15.920;2022-08-21T16:01:24;2.10;;;1.88;;
17595;SDS011;8916;47.086;15.920;2022-08-21T16:04:03;2.35;;;2.03;;
17595;SDS011;8916;47.086;15.920;2022-08-21T16:06:34;2.38;;;2.00;;
17595;SDS011;8916;47.086;15.920;2022-08-21T16:09:21;2.95;;;2.15;;
17595;SDS011;8916;47.086;15.920;2022-08-21T16:11:51;3.28;;;2.13;;
17595;SDS011;8916;47.086;15.920;2022-08-21T16:14:20;3.53;;;2.15;;
17595;SDS011;8916;47.086;15.920;2022-08-21T16:16:54;3.60;;;1.92;;
17595;SDS011;8916;47.086;15.920;2022-08-21T16:19:25;2.40;;;2.20;;
17595;SDS011;8916;47.086;15.920;2022-08-21T16:21:58;3.95;;;2.08;;
17595;SDS011;8916;47.086;15.920;2022-08-21T16:24:27;3.55;;;2.10;;
17595;SDS011;8916;47.086;15.920;2022-08-21T16:26:57;4.95;;;2.50;;